Time;durP1;ratioP1;P1;durP2;ratioP2;P2;SDS_P1;SDS_P2;PMS_P1;PMS_P2;Temp;Humidity;BMP_temperature;BMP_pressure;BME280_temperature;BME280_humidity;BME280_pressure;Samples;Min_cycle;Max_cycle;Signal;HPM_P1;HPM_P2
2021/11/11 00:01:53;;;;;;;;;;;22.90;46.80;;;;;;1491717;78;1099;-73
2021/11/11 00:03:54;;;;;;;;;;;22.90;46.80;;;;;;1491580;78;736;-73
2021/11/11 00:05:57;;;;;;;;;;;22.90;46.90;;;;;;1492697;78;737;-72
2021/11/11 00:08:00;;;;;;;;;;;22.90;46.90;;;;;;1491868;78;730;-72
2021/11/11 00:10:02;;;;;;;;;;;22.90;46.90;;;;;;1494773;78;674;-73
2021/11/11 00:12:04;;;;;;;;;;;22.90;47.00;;;;;;1491298;78;1207;-72
2021/11/11 00:14:05;;;;;;;;;;;22.90;47.00;;;;;;1492199;78;711;-74
2021/11/11 00:16:07;;;;;;;;;;;22.90;47.10;;;;;;1495303;78;1938;-72
2021/11/11 00:18:09;;;;;;;;;;;22.90;47.10;;;;;;1492702;78;747;-73
2021/11/11 00:20:11;;;;;;;;;;;22.90;47.20;;;;;;1496019;78;743;-73
2021/11/11 00:22:13;;;;;;;;;;;22.90;47.20;;;;;;1491521;78;1082;-73
2021/11/11 00:24:20;;;;;;;;;;;22.90;47.10;;;;;;1492411;78;735;-73
2021/11/11 00:26:19;;;;;;;;;;;22.90;47.10;;;;;;1494367;78;980;-71
2021/11/11 00:28:21;;;;;;;;;;;22.90;47.10;;;;;;1494762;78;723;-74
2021/11/11 00:30:22;;;;;;;;;;;22.90;47.10;;;;;;1496041;78;729;-73
2021/11/11 00:32:24;;;;;;;;;;;22.90;47.20;;;;;;1495318;78;1139;-73
2021/11/11 00:34:26;;;;;;;;;;;22.90;47.30;;;;;;1492786;78;696;-72
2021/11/11 00:36:28;;;;;;;;;;;22.90;47.30;;;;;;1493808;78;1930;-73
2021/11/11 00:38:30;;;;;;;;;;;22.90;47.30;;;;;;1493598;78;733;-75
2021/11/11 00:40:32;;;;;;;;;;;22.90;47.30;;;;;;1498691;78;710;-73
2021/11/11 00:42:34;;;;;;;;;;;22.90;47.30;;;;;;1492960;78;1087;-73
2021/11/11 00:44:36;;;;;;;;;;;22.90;47.30;;;;;;1495872;78;698;-74
2021/11/11 00:46:39;;;;;;;;;;;22.90;47.30;;;;;;1492023;78;666;-74
2021/11/11 00:48:41;;;;;;;;;;;22.90;47.30;;;;;;1491171;78;724;-74
2021/11/11 00:50:43;;;;;;;;;;;22.90;47.40;;;;;;1493884;78;678;-74
2021/11/11 00:52:45;;;;;;;;;;;22.90;47.40;;;;;;1503617;78;1093;-74
2021/11/11 00:54:46;;;;;;;;;;;22.90;47.40;;;;;;1499880;78;716;-75
2021/11/11 00:56:48;;;;;;;;;;;22.90;47.50;;;;;;1496926;78;1920;-75
2021/11/11 00:58:50;;;;;;;;;;;22.90;47.50;;;;;;1491930;78;803;-75
2021/11/11 01:00:53;;;;;;;;;;;22.90;47.50;;;;;;1491204;78;709;-74
2021/11/11 01:02:56;;;;;;;;;;;22.90;47.50;;;;;;1494783;78;1091;-74
2021/11/11 01:04:57;;;;;;;;;;;22.90;47.50;;;;;;1496360;78;752;-75
2021/11/11 01:06:59;;;;;;;;;;;22.90;47.50;;;;;;1491215;78;668;-76
2021/11/11 01:09:01;;;;;;;;;;;22.90;47.60;;;;;;1490081;78;735;-72
2021/11/11 01:11:03;;;;;;;;;;;23.00;47.60;;;;;;1498504;78;730;-73
2021/11/11 01:13:05;;;;;;;;;;;22.90;47.50;;;;;;1500947;78;1146;-74
2021/11/11 01:15:08;;;;;;;;;;;22.90;47.60;;;;;;1499677;78;700;-73
2021/11/11 01:17:09;;;;;;;;;;;22.90;47.60;;;;;;1513969;78;1938;-73
2021/11/11 01:19:11;;;;;;;;;;;22.90;47.60;;;;;;1514702;78;673;-72
2021/11/11 01:21:13;;;;;;;;;;;22.90;47.60;;;;;;1491599;78;826;-72
2021/11/11 01:23:15;;;;;;;;;;;22.90;47.60;;;;;;1498077;78;1081;-73
2021/11/11 01:25:17;;;;;;;;;;;23.00;47.60;;;;;;1508627;78;714;-73
2021/11/11 01:27:19;;;;;;;;;;;22.90;47.70;;;;;;1514477;78;717;-73
2021/11/11 01:29:21;;;;;;;;;;;22.90;47.70;;;;;;1506759;78;722;-75
2021/11/11 01:31:23;;;;;;;;;;;22.90;47.70;;;;;;1515717;78;727;-77
2021/11/11 01:33:25;;;;;;;;;;;22.90;47.70;;;;;;1499482;78;1093;-75
2021/11/11 01:35:27;;;;;;;;;;;22.90;47.70;;;;;;1515408;78;687;-76
2021/11/11 01:37:29;;;;;;;;;;;22.90;47.70;;;;;;1515292;78;1929;-77
2021/11/11 01:39:31;;;;;;;;;;;22.80;47.60;;;;;;1509006;78;740;-78
2021/11/11 01:41:33;;;;;;;;;;;22.90;47.80;;;;;;1514492;78;725;-75
2021/11/11 01:43:34;;;;;;;;;;;22.90;47.70;;;;;;1515684;78;1141;-76
2021/11/11 01:45:37;;;;;;;;;;;22.90;47.80;;;;;;1515536;78;724;-75
2021/11/11 01:47:39;;;;;;;;;;;22.90;47.80;;;;;;1513878;78;708;-75
2021/11/11 01:49:41;;;;;;;;;;;22.80;47.60;;;;;;1514515;78;744;-78
2021/11/11 01:51:44;;;;;;;;;;;22.90;47.70;;;;;;1515402;78;690;-75
2021/11/11 01:53:46;;;;;;;;;;;22.90;47.70;;;;;;1514572;78;1151;-76
2021/11/11 01:55:48;;;;;;;;;;;22.90;47.80;;;;;;1508986;78;774;-76
2021/11/11 01:57:51;;;;;;;;;;;23.00;47.80;;;;;;1505986;78;1942;-78
2021/11/11 01:59:53;;;;;;;;;;;23.00;47.80;;;;;;1498747;78;787;-74
2021/11/11 02:01:55;;;;;;;;;;;22.90;47.70;;;;;;1515266;78;1171;-73
2021/11/11 02:03:57;;;;;;;;;;;22.90;47.80;;;;;;1507799;78;668;-73
2021/11/11 02:05:59;;;;;;;;;;;22.90;47.80;;;;;;1507488;78;732;-72
2021/11/11 02:08:01;;;;;;;;;;;23.00;47.70;;;;;;1514890;78;675;-72
2021/11/11 02:10:04;;;;;;;;;;;22.90;47.70;;;;;;1509189;78;805;-73
2021/11/11 02:12:06;;;;;;;;;;;22.90;47.70;;;;;;1506497;78;1189;-72
2021/11/11 02:14:08;;;;;;;;;;;22.80;47.50;;;;;;1515374;78;641;-73
2021/11/11 02:16:10;;;;;;;;;;;23.00;47.70;;;;;;1515360;78;648;-74
2021/11/11 02:18:12;;;;;;;;;;;22.90;47.70;;;;;;1514494;78;1917;-74
2021/11/11 02:20:15;;;;;;;;;;;22.90;47.70;;;;;;1514179;78;734;-75
2021/11/11 02:22:17;;;;;;;;;;;22.90;47.60;;;;;;1505193;78;1165;-72
2021/11/11 02:24:19;;;;;;;;;;;22.90;47.70;;;;;;1501799;78;719;-72
2021/11/11 02:26:21;;;;;;;;;;;22.90;47.70;;;;;;1501454;78;682;-72
2021/11/11 02:28:23;;;;;;;;;;;22.90;47.70;;;;;;1508820;78;764;-74
2021/11/11 02:30:25;;;;;;;;;;;22.90;47.60;;;;;;1513576;78;718;-73
2021/11/11 02:32:30;;;;;;;;;;;22.90;47.60;;;;;;1515629;78;1132;-73
2021/11/11 02:34:32;;;;;;;;;;;22.90;47.70;;;;;;1509198;78;704;-73
2021/11/11 02:36:34;;;;;;;;;;;22.90;47.70;;;;;;1503438;78;711;-73
2021/11/11 02:38:36;;;;;;;;;;;22.90;47.60;;;;;;1510161;78;1945;-73
2021/11/11 02:40:39;;;;;;;;;;;22.90;47.60;;;;;;1505257;78;649;-74
2021/11/11 02:42:41;;;;;;;;;;;22.90;47.60;;;;;;1515408;78;1211;-77
2021/11/11 02:44:43;;;;;;;;;;;22.90;47.60;;;;;;1515777;78;686;-75
2021/11/11 02:49:06;;;;;;;;;;;22.90;47.60;;;;;;1615340;72;613;-58
2021/11/11 02:51:08;;;;;;;;;;;22.80;47.60;;;;;;1609393;72;828;-57
2021/11/11 02:53:10;;;;;;;;;;;22.80;47.60;;;;;;1614419;72;678;-58
2021/11/11 02:55:12;;;;;;;;;;;22.90;47.70;;;;;;1620329;72;1138;-57
2021/11/11 02:57:20;;;;;;;;;;;22.90;47.70;;;;;;1596089;73;1917;-57
2021/11/11 02:59:22;;;;;;;;;;;22.90;47.80;;;;;;1581709;73;846;-58
2021/11/11 03:01:24;;;;;;;;;;;22.80;47.60;;;;;;1590178;73;703;-58
2021/11/11 03:03:28;;;;;;;;;;;22.90;47.80;;;;;;1591879;73;719;-58
2021/11/11 03:05:30;;;;;;;;;;;22.80;47.70;;;;;;1594821;73;1106;-58
2021/11/11 03:07:32;;;;;;;;;;;22.80;47.70;;;;;;1591404;73;758;-58
2021/11/11 03:09:34;;;;;;;;;;;22.80;47.70;;;;;;1595008;74;771;-58
2021/11/11 03:11:37;;;;;;;;;;;22.80;47.70;;;;;;1586961;74;818;-58
2021/11/11 03:13:39;;;;;;;;;;;22.90;47.80;;;;;;1589964;74;697;-58
2021/11/11 03:15:42;;;;;;;;;;;22.80;47.70;;;;;;1585952;73;1182;-58
2021/11/11 03:17:44;;;;;;;;;;;22.80;47.70;;;;;;1580845;73;1971;-58
2021/11/11 03:19:46;;;;;;;;;;;22.80;47.70;;;;;;1575983;73;795;-58
2021/11/11 03:21:49;;;;;;;;;;;22.80;47.70;;;;;;1572579;74;750;-59
2021/11/11 03:23:51;;;;;;;;;;;22.80;47.70;;;;;;1578614;73;771;-58
2021/11/11 03:25:53;;;;;;;;;;;22.80;47.80;;;;;;1575543;74;1137;-59
2021/11/11 03:27:55;;;;;;;;;;;22.80;47.80;;;;;;1590923;73;716;-58
2021/11/11 03:29:57;;;;;;;;;;;22.80;47.80;;;;;;1595919;73;717;-59
2021/11/11 03:31:59;;;;;;;;;;;22.80;47.80;;;;;;1594990;73;788;-58
2021/11/11 03:34:01;;;;;;;;;;;22.80;47.80;;;;;;1588172;73;668;-59
2021/11/11 03:36:02;;;;;;;;;;;22.90;47.90;;;;;;1569900;74;1155;-58
2021/11/11 03:38:05;;;;;;;;;;;22.80;47.80;;;;;;1593254;74;1931;-58
2021/11/11 03:40:09;;;;;;;;;;;22.90;48.00;;;;;;1583854;74;660;-58
2021/11/11 03:42:11;;;;;;;;;;;22.80;47.80;;;;;;1584561;74;753;-58
2021/11/11 03:44:15;;;;;;;;;;;22.80;47.80;;;;;;1594474;74;814;-59
2021/11/11 03:46:17;;;;;;;;;;;22.90;48.00;;;;;;1580030;73;2020;-59
2021/11/11 03:48:19;;;;;;;;;;;22.90;48.00;;;;;;1588877;73;770;-58
2021/11/11 03:50:21;;;;;;;;;;;22.90;48.00;;;;;;1589928;73;806;-58
2021/11/11 03:52:23;;;;;;;;;;;22.90;48.10;;;;;;1593508;74;804;-56
2021/11/11 03:54:26;;;;;;;;;;;22.80;47.90;;;;;;1585311;74;796;-58
2021/11/11 03:56:27;;;;;;;;;;;22.90;48.10;;;;;;1577647;73;1166;-57
2021/11/11 03:58:29;;;;;;;;;;;22.90;48.10;;;;;;1581521;74;1946;-57
2021/11/11 04:00:31;;;;;;;;;;;22.80;47.90;;;;;;1583237;73;730;-57
2021/11/11 04:02:33;;;;;;;;;;;22.80;47.90;;;;;;1592439;74;673;-57
2021/11/11 04:04:36;;;;;;;;;;;22.90;48.10;;;;;;1593405;74;687;-56
2021/11/11 04:06:38;;;;;;;;;;;22.90;48.10;;;;;;1594932;73;1157;-56
2021/11/11 04:08:39;;;;;;;;;;;22.90;48.10;;;;;;1593601;73;729;-57
2021/11/11 04:10:41;;;;;;;;;;;22.90;48.10;;;;;;1586731;74;677;-57
2021/11/11 04:12:43;;;;;;;;;;;22.90;48.10;;;;;;1581324;74;761;-57
2021/11/11 04:14:45;;;;;;;;;;;22.90;48.00;;;;;;1591842;74;684;-58
2021/11/11 04:16:47;;;;;;;;;;;22.80;47.90;;;;;;1588794;74;1136;-56
2021/11/11 04:18:49;;;;;;;;;;;22.90;48.00;;;;;;1594586;74;1925;-54
2021/11/11 04:20:52;;;;;;;;;;;22.90;48.00;;;;;;1590277;73;741;-53
2021/11/11 04:22:54;;;;;;;;;;;22.90;48.00;;;;;;1570713;74;726;-55
2021/11/11 04:24:58;;;;;;;;;;;22.90;48.10;;;;;;1581980;73;601;-55
2021/11/11 04:27:07;;;;;;;;;;;22.90;48.10;;;;;;1591764;73;1658;-53
2021/11/11 04:29:16;;;;;;;;;;;22.90;48.10;;;;;;1590962;74;1662;-56
2021/11/11 04:31:20;;;;;;;;;;;22.90;48.00;;;;;;1590389;73;1585;-55
2021/11/11 04:33:15;;;;;;;;;;;22.90;48.10;;;;;;1588222;74;1646;-55
2021/11/11 04:35:17;;;;;;;;;;;22.90;48.10;;;;;;1591885;74;1136;-53
2021/11/11 04:37:26;;;;;;;;;;;22.90;48.10;;;;;;1576860;74;914;-52
2021/11/11 04:46:46;;;;;;;;;;;22.90;48.00;;;;;;1583587;73;1185;-55
2021/11/11 04:51:33;;;;;;;;;;;22.90;48.00;;;;;;1583518;74;1637;-54
2021/11/11 05:00:30;;;;;;;;;;;22.90;47.80;;;;;;1590886;74;1661;-57
2021/11/11 05:04:46;;;;;;;;;;;22.90;47.80;;;;;;1592409;74;1650;-57
2021/11/11 05:06:49;;;;;;;;;;;22.90;47.80;;;;;;1588411;73;1126;-57
2021/11/11 05:08:51;;;;;;;;;;;22.80;47.70;;;;;;1573882;73;793;-57
2021/11/11 05:10:53;;;;;;;;;;;22.90;47.80;;;;;;1582109;74;673;-57
2021/11/11 05:12:57;;;;;;;;;;;22.80;47.70;;;;;;1594712;74;898;-55
2021/11/11 05:14:59;;;;;;;;;;;22.90;47.80;;;;;;1580102;74;919;-57
2021/11/11 05:17:01;;;;;;;;;;;22.90;47.80;;;;;;1586684;74;1136;-57
2021/11/11 05:19:03;;;;;;;;;;;22.90;47.90;;;;;;1575523;74;1954;-54
2021/11/11 05:21:05;;;;;;;;;;;22.90;47.90;;;;;;1575774;74;686;-56
2021/11/11 05:23:07;;;;;;;;;;;22.80;47.80;;;;;;1580144;74;724;-54
2021/11/11 05:25:09;;;;;;;;;;;22.80;47.80;;;;;;1581924;73;1179;-58
2021/11/11 05:27:12;;;;;;;;;;;22.90;47.90;;;;;;1578161;74;733;-57
2021/11/11 05:29:14;;;;;;;;;;;22.90;47.90;;;;;;1583230;74;733;-57
2021/11/11 05:31:17;;;;;;;;;;;22.90;47.90;;;;;;1579338;73;720;-54
2021/11/11 05:33:18;;;;;;;;;;;22.80;47.80;;;;;;1591232;73;794;-57
2021/11/11 05:35:20;;;;;;;;;;;22.80;47.80;;;;;;1593510;73;1146;-58
2021/11/11 05:37:22;;;;;;;;;;;22.90;48.10;;;;;;1593244;74;759;-58
2021/11/11 05:39:24;;;;;;;;;;;23.00;48.10;;;;;;1588883;74;1941;-57
2021/11/11 05:41:26;;;;;;;;;;;23.00;48.10;;;;;;1579551;74;710;-55
2021/11/11 05:43:28;;;;;;;;;;;22.90;48.10;;;;;;1595212;73;805;-56
2021/11/11 05:45:30;;;;;;;;;;;23.00;48.10;;;;;;1584260;73;1101;-58
2021/11/11 05:47:32;;;;;;;;;;;22.90;48.10;;;;;;1588638;74;801;-59
2021/11/11 05:49:34;;;;;;;;;;;22.90;48.10;;;;;;1590678;74;776;-58
2021/11/11 05:51:35;;;;;;;;;;;22.90;48.10;;;;;;1571579;74;753;-58
2021/11/11 05:53:37;;;;;;;;;;;22.90;48.10;;;;;;1569881;73;824;-54
2021/11/11 05:55:39;;;;;;;;;;;22.90;48.00;;;;;;1586439;73;1174;-58
2021/11/11 05:57:41;;;;;;;;;;;22.90;47.80;;;;;;1582534;74;766;-56
2021/11/11 05:59:43;;;;;;;;;;;22.80;47.80;;;;;;1583035;74;2035;-55
2021/11/11 06:01:45;;;;;;;;;;;22.90;47.80;;;;;;1586874;73;917;-56
2021/11/11 06:03:47;;;;;;;;;;;22.90;45.80;;;;;;1589678;74;716;-55
2021/11/11 06:05:48;;;;;;;;;;;22.70;43.90;;;;;;1578728;74;1108;-58
2021/11/11 06:07:50;;;;;;;;;;;22.80;43.00;;;;;;1593562;74;788;-56
2021/11/11 06:09:52;;;;;;;;;;;22.70;42.20;;;;;;1594690;74;958;-57
2021/11/11 06:11:54;;;;;;;;;;;22.70;41.50;;;;;;1592627;74;725;-58
2021/11/11 06:13:56;;;;;;;;;;;22.60;41.10;;;;;;1573601;74;730;-55
2021/11/11 06:15:58;;;;;;;;;;;22.60;40.70;;;;;;1578739;73;1150;-56
2021/11/11 06:18:00;;;;;;;;;;;22.50;40.30;;;;;;1589109;74;694;-58
2021/11/11 06:20:09;;;;;;;;;;;22.50;39.90;;;;;;1582256;73;1931;-58
2021/11/11 06:22:06;;;;;;;;;;;22.50;39.70;;;;;;1591297;73;1623;-54
2021/11/11 06:24:08;;;;;;;;;;;22.50;39.40;;;;;;1585536;73;731;-58
2021/11/11 06:26:10;;;;;;;;;;;22.40;38.90;;;;;;1595427;73;1198;-58
2021/11/11 06:28:12;;;;;;;;;;;22.30;38.90;;;;;;1594861;73;799;-58
2021/11/11 06:30:14;;;;;;;;;;;22.30;38.60;;;;;;1587822;74;796;-58
2021/11/11 06:32:16;;;;;;;;;;;22.30;38.40;;;;;;1595827;74;777;-57
2021/11/11 06:34:18;;;;;;;;;;;22.30;38.30;;;;;;1586449;73;674;-57
2021/11/11 06:36:19;;;;;;;;;;;22.30;38.40;;;;;;1569912;74;1141;-56
2021/11/11 06:38:21;;;;;;;;;;;22.20;38.10;;;;;;1591658;73;796;-58
2021/11/11 06:40:23;;;;;;;;;;;22.10;37.80;;;;;;1594445;74;750;-58
2021/11/11 06:42:25;;;;;;;;;;;22.10;37.80;;;;;;1594785;74;773;-58
2021/11/11 06:44:27;;;;;;;;;;;22.10;37.90;;;;;;1593256;74;762;-58
2021/11/11 06:46:29;;;;;;;;;;;22.10;37.80;;;;;;1589716;73;1142;-55
2021/11/11 06:48:31;;;;;;;;;;;22.00;37.80;;;;;;1598968;73;938;-57
2021/11/11 06:50:33;;;;;;;;;;;22.00;37.30;;;;;;1600006;73;788;-58
2021/11/11 06:52:35;;;;;;;;;;;21.90;35.60;;;;;;1594474;73;740;-57
2021/11/11 06:54:40;;;;;;;;;;;21.90;35.60;;;;;;1594849;74;754;-54
2021/11/11 06:56:40;;;;;;;;;;;21.80;36.10;;;;;;1593933;73;1711;-58
2021/11/11 06:58:42;;;;;;;;;;;21.80;36.50;;;;;;1569767;74;1962;-57
2021/11/11 07:00:44;;;;;;;;;;;21.80;36.70;;;;;;1568664;76;743;-58
2021/11/11 07:02:46;;;;;;;;;;;21.80;36.80;;;;;;1568329;76;740;-58
2021/11/11 07:04:48;;;;;;;;;;;21.80;36.90;;;;;;1568029;76;656;-57
2021/11/11 07:06:50;;;;;;;;;;;21.80;36.90;;;;;;1590130;74;1108;-57
2021/11/11 07:08:52;;;;;;;;;;;21.70;37.00;;;;;;1595669;74;770;-57
2021/11/11 07:10:54;;;;;;;;;;;21.70;37.00;;;;;;1583386;73;666;-56
2021/11/11 07:12:56;;;;;;;;;;;21.70;37.00;;;;;;1581400;74;685;-56
2021/11/11 07:14:58;;;;;;;;;;;21.60;36.90;;;;;;1568795;76;735;-54
2021/11/11 07:17:01;;;;;;;;;;;21.70;37.10;;;;;;1578881;74;1156;-58
2021/11/11 07:19:03;;;;;;;;;;;21.70;37.20;;;;;;1596112;74;1913;-57
2021/11/11 07:21:05;;;;;;;;;;;21.60;37.10;;;;;;1596157;74;786;-58
2021/11/11 07:23:07;;;;;;;;;;;21.60;37.10;;;;;;1595797;74;545;-57
2021/11/11 07:25:09;;;;;;;;;;;21.60;37.20;;;;;;1595268;73;1089;-57
2021/11/11 07:27:11;;;;;;;;;;;21.60;37.20;;;;;;1591409;74;739;-55
2021/11/11 07:29:13;;;;;;;;;;;21.60;37.30;;;;;;1595153;73;791;-56
2021/11/11 07:31:19;;;;;;;;;;;21.50;37.30;;;;;;1585268;74;735;-53
2021/11/11 07:33:18;;;;;;;;;;;21.60;37.30;;;;;;1585795;74;1590;-57
2021/11/11 07:35:20;;;;;;;;;;;21.50;37.30;;;;;;1586496;73;1280;-58
2021/11/11 07:37:22;;;;;;;;;;;21.50;37.30;;;;;;1592837;74;787;-57
2021/11/11 07:39:25;;;;;;;;;;;21.50;37.30;;;;;;1588857;74;1940;-58
2021/11/11 07:41:27;;;;;;;;;;;21.50;37.30;;;;;;1592927;74;766;-58
2021/11/11 07:43:29;;;;;;;;;;;21.40;37.10;;;;;;1591156;74;761;-58
2021/11/11 07:45:31;;;;;;;;;;;21.40;37.10;;;;;;1583276;73;1123;-58
2021/11/11 07:47:33;;;;;;;;;;;21.40;37.10;;;;;;1594522;74;734;-56
2021/11/11 07:49:35;;;;;;;;;;;21.50;37.30;;;;;;1585948;74;729;-58
2021/11/11 07:51:37;;;;;;;;;;;21.40;37.20;;;;;;1590929;74;729;-55
2021/11/11 07:53:39;;;;;;;;;;;21.50;37.30;;;;;;1590301;74;712;-57
2021/11/11 07:55:42;;;;;;;;;;;21.40;37.20;;;;;;1590429;73;1155;-58
2021/11/11 07:57:44;;;;;;;;;;;21.50;37.30;;;;;;1595091;74;709;-56
2021/11/11 07:59:48;;;;;;;;;;;21.40;37.30;;;;;;1594711;74;1915;-58
2021/11/11 08:01:49;;;;;;;;;;;21.40;37.30;;;;;;1585436;73;1681;-58
2021/11/11 08:03:51;;;;;;;;;;;21.40;37.30;;;;;;1576672;73;789;-57
2021/11/11 08:05:53;;;;;;;;;;;21.40;37.30;;;;;;1595706;73;1175;-56
2021/11/11 08:07:55;;;;;;;;;;;21.40;37.10;;;;;;1586529;74;670;-55
2021/11/11 08:09:57;;;;;;;;;;;21.40;37.20;;;;;;1576205;74;781;-58
2021/11/11 08:11:59;;;;;;;;;;;21.40;37.30;;;;;;1582070;73;663;-57
2021/11/11 08:14:05;;;;;;;;;;;21.30;37.10;;;;;;1592867;73;821;-58
2021/11/11 08:16:05;;;;;;;;;;;21.40;37.10;;;;;;1587986;73;1999;-57
2021/11/11 08:18:07;;;;;;;;;;;21.40;37.20;;;;;;1595414;74;734;-57
2021/11/11 08:20:09;;;;;;;;;;;21.40;37.20;;;;;;1592992;73;1927;-57
2021/11/11 08:22:11;;;;;;;;;;;21.40;37.20;;;;;;1586068;74;725;-58
2021/11/11 08:24:13;;;;;;;;;;;21.40;37.30;;;;;;1589767;73;810;-57
2021/11/11 08:26:15;;;;;;;;;;;21.30;37.00;;;;;;1591363;73;1130;-52
2021/11/11 08:28:18;;;;;;;;;;;21.30;37.00;;;;;;1589481;74;647;-57
2021/11/11 08:30:20;;;;;;;;;;;21.40;37.10;;;;;;1583832;73;734;-58
2021/11/11 08:32:22;;;;;;;;;;;21.40;37.30;;;;;;1594329;74;798;-58
2021/11/11 08:34:24;;;;;;;;;;;21.40;37.20;;;;;;1593736;74;700;-58
2021/11/11 08:36:27;;;;;;;;;;;21.40;37.20;;;;;;1590676;73;3133;-59
2021/11/11 08:38:29;;;;;;;;;;;21.30;37.30;;;;;;1582710;74;665;-57
2021/11/11 08:40:31;;;;;;;;;;;21.40;37.30;;;;;;1582298;75;1909;-58
2021/11/11 08:42:33;;;;;;;;;;;21.30;37.30;;;;;;1571721;74;750;-57
2021/11/11 08:44:37;;;;;;;;;;;21.30;37.30;;;;;;1556178;74;745;-56
2021/11/11 08:46:39;;;;;;;;;;;21.40;37.40;;;;;;1560972;74;1210;-57
2021/11/11 08:48:41;;;;;;;;;;;21.30;37.50;;;;;;1557056;74;1072;-59
2021/11/11 08:50:43;;;;;;;;;;;21.40;37.30;;;;;;1535407;76;725;-58
2021/11/11 08:52:45;;;;;;;;;;;21.40;37.30;;;;;;1560811;75;628;-57
2021/11/11 08:54:47;;;;;;;;;;;21.40;37.30;;;;;;1542622;76;795;-59
2021/11/11 08:56:49;;;;;;;;;;;21.40;37.40;;;;;;1535263;76;1103;-58
2021/11/11 08:58:51;;;;;;;;;;;21.40;37.40;;;;;;1532563;77;751;-57
2021/11/11 09:00:53;;;;;;;;;;;21.40;37.40;;;;;;1556590;75;1959;-56
2021/11/11 09:02:55;;;;;;;;;;;21.40;37.40;;;;;;1537199;76;830;-57
2021/11/11 09:04:57;;;;;;;;;;;21.40;37.40;;;;;;1539492;76;710;-56
2021/11/11 09:06:59;;;;;;;;;;;21.40;37.50;;;;;;1579837;75;1160;-54
2021/11/11 09:09:01;;;;;;;;;;;21.30;37.50;;;;;;1579796;75;776;-57
2021/11/11 09:11:03;;;;;;;;;;;21.40;37.50;;;;;;1578928;75;752;-57
2021/11/11 09:13:05;;;;;;;;;;;21.40;37.40;;;;;;1579837;75;733;-55
2021/11/11 09:15:08;;;;;;;;;;;21.40;37.50;;;;;;1579701;74;1140;-59
2021/11/11 09:17:10;;;;;;;;;;;21.40;37.50;;;;;;1579419;75;709;-58
2021/11/11 09:19:12;;;;;;;;;;;21.40;37.40;;;;;;1579815;75;943;-58
2021/11/11 09:21:14;;;;;;;;;;;21.40;37.30;;;;;;1579369;75;1942;-58
2021/11/11 09:23:16;;;;;;;;;;;21.40;37.50;;;;;;1579348;75;665;-59
2021/11/11 09:25:18;;;;;;;;;;;21.40;37.60;;;;;;1575630;74;1184;-59
2021/11/11 09:27:20;;;;;;;;;;;21.40;37.70;;;;;;1571613;75;691;-60
2021/11/11 09:29:22;;;;;;;;;;;21.40;37.70;;;;;;1574598;75;727;-60
2021/11/11 09:31:24;;;;;;;;;;;21.40;37.80;;;;;;1568557;75;738;-55
2021/11/11 09:33:26;;;;;;;;;;;21.40;37.70;;;;;;1572945;75;766;-57
2021/11/11 09:35:28;;;;;;;;;;;21.40;37.70;;;;;;1571343;74;1132;-59
2021/11/11 09:37:30;;;;;;;;;;;21.40;37.70;;;;;;1579506;75;826;-57
2021/11/11 09:39:32;;;;;;;;;;;21.40;37.70;;;;;;1572046;75;1942;-59
2021/11/11 09:41:33;;;;;;;;;;;21.40;37.80;;;;;;1557502;75;768;-59
2021/11/11 09:43:36;;;;;;;;;;;21.40;37.80;;;;;;1577332;75;737;-57
2021/11/11 09:45:37;;;;;;;;;;;21.40;37.70;;;;;;1574429;74;1146;-56
2021/11/11 09:47:40;;;;;;;;;;;21.40;37.80;;;;;;1571630;75;690;-55
2021/11/11 09:49:42;;;;;;;;;;;21.40;37.80;;;;;;1565916;75;774;-57
2021/11/11 09:51:44;;;;;;;;;;;21.40;37.90;;;;;;1568022;74;672;-55
2021/11/11 09:53:55;;;;;;;;;;;21.40;37.90;;;;;;1573607;75;763;-57
2021/11/11 10:00:32;;;;;;;;;;;21.40;38.00;;;;;;1566584;75;1929;-56
2021/11/11 10:02:34;;;;;;;;;;;21.50;38.30;;;;;;1570028;75;723;-54
2021/11/11 10:04:37;;;;;;;;;;;21.50;38.30;;;;;;1568704;75;725;-59
2021/11/11 10:06:40;;;;;;;;;;;21.50;38.20;;;;;;1579755;75;1166;-56
2021/11/11 10:08:45;;;;;;;;;;;21.50;38.30;;;;;;1579788;75;724;-59
2021/11/11 10:10:47;;;;;;;;;;;21.50;38.40;;;;;;1572111;75;803;-54
2021/11/11 10:12:51;;;;;;;;;;;21.50;38.40;;;;;;1557431;75;695;-57
2021/11/11 10:14:53;;;;;;;;;;;21.50;38.40;;;;;;1578856;75;1610;-58
2021/11/11 10:16:58;;;;;;;;;;;21.50;38.40;;;;;;1579570;74;1103;-57
2021/11/11 10:19:01;;;;;;;;;;;21.60;38.40;;;;;;1579789;75;688;-60
2021/11/11 10:21:03;;;;;;;;;;;21.60;38.50;;;;;;1579047;75;1896;-57
2021/11/11 10:23:21;;;;;;;;;;;21.60;38.50;;;;;;1579348;75;721;-59
2021/11/11 10:25:23;;;;;;;;;;;21.60;38.40;;;;;;1578502;74;1135;-57
2021/11/11 10:27:33;;;;;;;;;;;21.50;38.40;;;;;;1579916;75;774;-57
2021/11/11 10:29:39;;;;;;;;;;;21.60;38.50;;;;;;1579424;75;750;-57
2021/11/11 10:31:41;;;;;;;;;;;21.50;38.40;;;;;;1566676;74;718;-55
2021/11/11 10:34:01;;;;;;;;;;;21.50;38.40;;;;;;1560321;75;583;-55
2021/11/11 10:36:06;;;;;;;;;;;21.60;38.60;;;;;;1579634;75;1116;-55
2021/11/11 10:38:08;;;;;;;;;;;21.50;38.60;;;;;;1579619;75;1657;-60
2021/11/11 10:40:11;;;;;;;;;;;21.50;38.70;;;;;;1579474;75;1920;-60
2021/11/11 10:42:15;;;;;;;;;;;21.50;38.50;;;;;;1579040;75;1816;-59
2021/11/11 10:44:18;;;;;;;;;;;21.50;38.20;;;;;;1544359;77;695;-59
2021/11/11 10:46:20;;;;;;;;;;;21.50;38.10;;;;;;1552913;76;1154;-59
2021/11/11 10:48:23;;;;;;;;;;;21.50;37.90;;;;;;1579634;75;673;-60
2021/11/11 10:50:26;;;;;;;;;;;21.40;37.70;;;;;;1552880;76;786;-60
2021/11/11 10:52:38;;;;;;;;;;;21.30;37.70;;;;;;1579035;75;700;-58
2021/11/11 10:54:57;;;;;;;;;;;21.30;37.60;;;;;;1552156;76;705;-58
2021/11/11 10:56:59;;;;;;;;;;;21.30;37.60;;;;;;1552910;76;1119;-57
2021/11/11 10:59:01;;;;;;;;;;;21.20;37.70;;;;;;1552721;76;769;-60
2021/11/11 11:01:04;;;;;;;;;;;21.20;37.60;;;;;;1532031;77;1934;-59
2021/11/11 11:03:07;;;;;;;;;;;21.20;37.70;;;;;;1616059;73;715;-59
2021/11/11 11:05:09;;;;;;;;;;;21.10;38.10;;;;;;1588204;73;1118;-59
2021/11/11 11:07:11;;;;;;;;;;;21.20;38.40;;;;;;1588655;75;640;-59
2021/11/11 11:09:13;;;;;;;;;;;21.20;38.60;;;;;;1588496;75;801;-59
2021/11/11 11:11:21;;;;;;;;;;;21.20;38.70;;;;;;1595610;74;1275;-59
2021/11/11 11:13:27;;;;;;;;;;;21.20;38.70;;;;;;1615722;73;601;-59
2021/11/11 11:15:36;;;;;;;;;;;21.20;38.80;;;;;;1616706;72;1113;-59
2021/11/11 11:17:40;;;;;;;;;;;21.20;38.90;;;;;;1616428;73;848;-58
2021/11/11 11:19:42;;;;;;;;;;;21.20;39.00;;;;;;1617206;73;1814;-58
2021/11/11 11:21:48;;;;;;;;;;;21.20;39.10;;;;;;1616026;73;1910;-60
2021/11/11 11:23:51;;;;;;;;;;;21.30;39.20;;;;;;1615461;73;734;-60
2021/11/11 11:25:55;;;;;;;;;;;21.30;39.30;;;;;;1592162;73;1113;-57
2021/11/11 11:27:57;;;;;;;;;;;21.30;39.30;;;;;;1592962;73;1934;-59
2021/11/11 11:30:05;;;;;;;;;;;21.30;39.40;;;;;;1595491;73;806;-58
2021/11/11 11:32:06;;;;;;;;;;;21.30;39.40;;;;;;1601575;73;1639;-59
2021/11/11 11:34:08;;;;;;;;;;;21.30;39.40;;;;;;1612835;73;720;-60
2021/11/11 11:36:15;;;;;;;;;;;21.30;39.50;;;;;;1598477;73;1161;-59
2021/11/11 11:38:24;;;;;;;;;;;21.30;39.50;;;;;;1582528;73;767;-57
2021/11/11 11:40:25;;;;;;;;;;;21.30;39.60;;;;;;1601877;73;1927;-60
2021/11/11 11:42:34;;;;;;;;;;;21.30;39.60;;;;;;1604004;73;1162;-57
2021/11/11 11:44:33;;;;;;;;;;;21.30;39.60;;;;;;1590933;73;1597;-57
2021/11/11 11:46:35;;;;;;;;;;;21.30;39.60;;;;;;1590118;73;1110;-57
2021/11/11 11:48:37;;;;;;;;;;;21.40;39.70;;;;;;1606914;73;781;-59
2021/11/11 11:50:48;;;;;;;;;;;21.30;39.60;;;;;;1612734;73;705;-60
2021/11/11 11:52:46;;;;;;;;;;;21.40;39.60;;;;;;1608108;73;1706;-57
2021/11/11 11:54:55;;;;;;;;;;;21.40;39.70;;;;;;1617212;73;1503;-58
2021/11/11 11:56:58;;;;;;;;;;;21.40;39.60;;;;;;1618648;73;1638;-60
2021/11/11 11:59:01;;;;;;;;;;;21.40;39.60;;;;;;1618473;73;1466;-59
2021/11/11 12:08:03;;;;;;;;;;;21.40;39.70;;;;;;1619467;73;848;-60
2021/11/11 12:10:08;;;;;;;;;;;21.40;39.80;;;;;;1619179;73;1481;-57
2021/11/11 12:13:09;;;;;;;;;;;21.40;39.80;;;;;;1621280;73;1117;-58
2021/11/11 12:14:26;;;;;;;;;;;21.40;39.90;;;;;;1575847;73;1972;-58
2021/11/11 12:16:44;;;;;;;;;;;21.40;39.90;;;;;;1600444;72;1606;-58
2021/11/11 12:28:45;;;;;;;;;;;21.40;40.10;;;;;;1616863;72;1606;-58
2021/11/11 12:40:08;;;;;;;;;;;21.40;40.00;;;;;;1603943;72;1589;-58
2021/11/11 12:42:11;;;;;;;;;;;21.40;40.00;;;;;;1597822;72;1904;-58
2021/11/11 12:44:13;;;;;;;;;;;21.40;40.10;;;;;;1605943;72;783;-58
2021/11/11 12:46:19;;;;;;;;;;;21.30;40.00;;;;;;1604150;72;1183;-59
2021/11/11 12:48:21;;;;;;;;;;;21.30;40.00;;;;;;1591700;72;1818;-59
2021/11/11 12:50:40;;;;;;;;;;;21.30;40.10;;;;;;1609718;72;788;-59
2021/11/11 12:52:42;;;;;;;;;;;21.40;40.10;;;;;;1607119;72;720;-57
2021/11/11 12:54:44;;;;;;;;;;;21.40;40.20;;;;;;1613637;72;783;-57
2021/11/11 12:56:46;;;;;;;;;;;21.30;40.20;;;;;;1601690;72;1102;-57
2021/11/11 12:58:49;;;;;;;;;;;21.40;40.10;;;;;;1591261;73;1201;-57
2021/11/11 13:00:52;;;;;;;;;;;21.30;40.10;;;;;;1603044;72;1932;-56
2021/11/11 13:02:54;;;;;;;;;;;21.30;40.20;;;;;;1606032;72;756;-58
2021/11/11 13:04:58;;;;;;;;;;;21.40;40.10;;;;;;1603381;72;691;-59